createdAt,value
2023-05-04T00:00:38.370Z,22.70
2023-05-04T00:11:04.097Z,16.90
2023-05-04T00:21:30.329Z,18.20
2023-05-04T00:31:56.420Z,18.30
2023-05-04T00:42:22.748Z,23.00
2023-05-04T00:52:49.921Z,20.40
2023-05-04T01:03:16.308Z,19.90
2023-05-04T01:13:44.359Z,21.10
2023-05-04T01:24:10.224Z,19.30
2023-05-04T01:34:38.874Z,19.10
2023-05-04T01:45:04.520Z,18.60
2023-05-04T01:55:29.860Z,14.20
2023-05-04T02:05:55.583Z,15.10
2023-05-04T02:16:21.588Z,15.10
2023-05-04T02:26:47.794Z,14.20
2023-05-04T02:37:13.717Z,13.20
2023-05-04T02:47:41.871Z,13.20
2023-05-04T02:58:07.910Z,13.90
2023-05-04T03:08:41.956Z,12.00
2023-05-04T03:19:08.121Z,25.30
2023-05-04T03:29:33.596Z,11.80
2023-05-04T03:39:59.763Z,13.60
2023-05-04T03:50:25.883Z,12.20
2023-05-04T04:00:51.610Z,12.20
2023-05-04T04:11:17.052Z,10.40
2023-05-04T04:21:43.162Z,9.20
2023-05-04T04:32:09.736Z,11.60
2023-05-04T04:42:35.490Z,12.20
2023-05-04T04:53:01.759Z,14.40
2023-05-04T05:03:27.897Z,11.60
2023-05-04T05:13:53.562Z,11.70
2023-05-04T05:24:19.547Z,11.30
2023-05-04T05:34:45.487Z,10.10
2023-05-04T05:45:12.983Z,9.50
2023-05-04T05:55:38.604Z,8.80
2023-05-04T06:06:04.069Z,9.10
2023-05-04T06:16:30.090Z,9.30
2023-05-04T06:26:56.068Z,8.10
2023-05-04T06:37:22.002Z,9.10
2023-05-04T06:47:48.000Z,7.60
2023-05-04T06:58:13.895Z,8.60
2023-05-04T07:08:42.276Z,10.00
2023-05-04T07:19:08.570Z,7.30
2023-05-04T07:29:34.653Z,6.30
2023-05-04T07:40:01.670Z,4.20
2023-05-04T07:50:27.739Z,4.10
2023-05-04T08:00:53.614Z,5.20
2023-05-04T08:11:21.100Z,5.90
2023-05-04T08:21:47.618Z,5.50
2023-05-04T08:32:14.448Z,5.50
2023-05-04T08:42:40.534Z,5.10
2023-05-04T08:53:11.245Z,5.20
2023-05-04T09:03:37.713Z,5.20
2023-05-04T09:14:03.865Z,7.00
2023-05-04T09:24:30.630Z,5.70
2023-05-04T09:34:57.000Z,6.60
2023-05-04T09:45:23.368Z,5.60
2023-05-04T09:55:54.496Z,5.30
2023-05-04T10:06:21.432Z,4.30
2023-05-04T10:16:55.684Z,4.80
2023-05-04T10:27:38.125Z,5.30
2023-05-04T10:38:04.643Z,6.60
2023-05-04T10:48:37.700Z,6.80
2023-05-04T10:59:11.194Z,7.80
2023-05-04T11:09:44.516Z,5.90
2023-05-04T11:20:12.055Z,4.20
2023-05-04T11:41:21.031Z,14.60
2023-05-04T11:51:48.828Z,8.00
2023-05-04T12:02:19.379Z,6.70
2023-05-04T12:12:45.124Z,9.10
2023-05-04T12:23:11.215Z,16.80
2023-05-04T12:33:37.848Z,7.00
2023-05-04T12:44:03.347Z,5.00
2023-05-04T12:54:29.244Z,4.90
2023-05-04T13:04:54.896Z,6.20
2023-05-04T13:15:21.105Z,5.70
2023-05-04T13:25:46.767Z,7.70
2023-05-04T13:36:12.930Z,4.00
2023-05-04T13:46:38.947Z,4.00
2023-05-04T13:57:04.987Z,4.00
2023-05-04T14:07:31.215Z,3.50
2023-05-04T14:17:57.120Z,4.40
2023-05-04T14:28:23.932Z,3.40
2023-05-04T14:38:50.070Z,4.70
2023-05-04T14:49:28.388Z,3.60
2023-05-04T15:00:07.544Z,5.30
2023-05-04T15:10:35.481Z,4.00
2023-05-04T15:21:01.296Z,3.10
2023-05-04T15:31:27.497Z,4.30
2023-05-04T15:41:54.772Z,6.30
2023-05-04T15:52:21.195Z,3.40
2023-05-04T16:02:46.937Z,4.20
2023-05-04T16:13:12.991Z,6.40
2023-05-04T16:23:38.695Z,6.00
2023-05-04T16:34:04.260Z,3.30
2023-05-04T16:44:31.368Z,5.80
2023-05-04T16:54:58.222Z,3.90
2023-05-04T17:05:24.247Z,5.40
2023-05-04T17:15:50.296Z,5.70
2023-05-04T17:26:16.198Z,4.20
2023-05-04T17:36:42.282Z,4.70
2023-05-04T17:47:08.309Z,6.30
2023-05-04T17:57:34.096Z,3.40
2023-05-04T18:07:59.958Z,4.70
2023-05-04T18:18:25.896Z,3.90
2023-05-04T18:28:51.768Z,5.00
2023-05-04T18:39:17.238Z,4.80
2023-05-04T18:49:44.133Z,6.00
2023-05-04T19:00:13.956Z,5.00
2023-05-04T19:10:39.790Z,6.00
2023-05-04T19:21:08.408Z,4.60
2023-05-04T19:31:34.265Z,3.60
2023-05-04T19:42:00.795Z,4.60
2023-05-04T19:52:26.446Z,4.90
2023-05-04T20:02:52.638Z,4.40
2023-05-04T20:13:18.769Z,6.10
2023-05-04T20:23:45.619Z,4.40
2023-05-04T20:34:11.797Z,7.10
2023-05-04T20:45:01.683Z,6.50
2023-05-04T20:55:25.167Z,6.40
2023-05-04T21:05:50.973Z,8.10
2023-05-04T21:16:17.120Z,7.70
2023-05-04T21:26:43.563Z,7.50
2023-05-04T21:37:09.675Z,7.10
2023-05-04T21:47:36.390Z,7.80
2023-05-04T21:58:02.891Z,12.00
2023-05-04T22:08:29.876Z,7.10
2023-05-04T22:18:55.723Z,8.60
2023-05-04T22:29:21.622Z,7.10
2023-05-04T22:39:47.290Z,12.30
2023-05-04T22:50:14.337Z,10.70
2023-05-04T23:00:40.882Z,9.10
2023-05-04T23:11:07.108Z,7.90
2023-05-04T23:21:33.350Z,10.40
2023-05-04T23:31:59.302Z,11.30
2023-05-04T23:42:26.730Z,8.70
2023-05-04T23:52:52.270Z,10.10
